Date,TemperatureHighF,TemperatureAvgF,TemperatureLowF,DewpointHighF,DewpointAvgF,DewpointLowF,HumidityHigh,HumidityAvg,HumidityLow,PressureMaxIn,PressureMinIn,WindSpeedMaxMPH,WindSpeedAvgMPH,GustSpeedMaxMPH,PrecipitationSumIn
2014-1-1,20,17,13,11,8,5,71,68,60,30.24,30.05,18,7,18,0.00
2014-1-2,15,12,3,6,1,-13,70,60,40,30.25,29.93,27,11,27,0.00
2014-1-3,16,8,-2,0,-8,-16,56,47,35,30.41,29.98,25,7,25,0.01
2014-1-4,32,25,15,20,10,0,68,53,43,29.99,29.85,28,10,28,0.00
2014-1-5,30,26,18,26,21,11,84,80,68,29.92,29.66,36,7,36,0.37
2014-1-6,18,-8,-15,11,-24,-35,75,44,31,30.17,29.73,33,16,34,0.17
2014-1-7,6,-6,-14,-5,-22,-30,60,44,34,30.30,30.10,23,9,23,0.00
2014-1-8,19,9,2,3,-4,-8,64,55,42,30.40,30.17,7,2,7,0.00
2014-1-9,26,13,4,20,3,-7,79,65,53,30.48,30.11,17,6,17,0.00
2014-1-10,41,35,26,39,31,20,93,87,78,30.11,29.54,22,9,22,0.44
2014-1-11,42,36,32,40,33,26,95,88,74,29.65,29.34,19,9,20,0.08
2014-1-12,41,34,30,30,26,23,81,73,62,29.91,29.64,26,10,26,0.01
2014-1-13,49,41,34,35,31,26,75,66,58,29.68,29.54,20,8,20,0.00
2014-1-14,38,30,24,29,20,10,84,67,49,29.76,29.63,37,10,37,0.02
2014-1-15,27,22,18,16,11,3,74,62,49,30.01,29.73,22,10,22,0.00
2014-1-17,18,14,12,5,2,0,68,60,52,29.92,29.81,15,8,15,0.00
2014-1-18,19,16,10,13,6,-1,77,66,54,29.86,29.70,17,8,17,0.00
2014-1-19,36,23,13,23,13,4,73,67,59,29.75,29.45,33,12,33,0.00
2014-1-20,37,31,20,25,21,12,74,66,58,29.89,29.44,26,8,26,0.00
2014-1-21,20,11,6,12,-11,-20,72,40,20,30.18,29.86,27,10,27,0.09
2014-1-22,12,8,1,3,-5,-13,67,55,41,30.07,29.86,24,7,24,0.00
2014-1-23,12,5,-2,-5,-10,-16,58,50,43,30.44,29.92,22,11,22,0.00
2014-1-24,20,6,-8,13,-9,-23,76,49,38,30.39,29.48,36,16,36,0.02
2014-1-25,28,19,6,24,6,-14,84,58,34,29.75,29.28,36,17,36,0.79
2014-1-26,31,17,4,20,5,-13,76,59,41,29.74,28.82,35,11,35,1.06
2014-1-27,20,2,-9,13,-14,-29,75,48,32,30.29,29.50,34,13,34,0.52
2014-1-28,6,-6,-14,-18,-24,-30,47,39,26,30.39,30.16,13,7,14,0.00
2014-1-29,12,6,-3,-8,-12,-18,50,43,38,30.37,30.05,13,7,13,0.00
2014-1-30,26,21,12,6,1,-8,42,41,38,30.08,29.76,27,14,27,0.01
2014-1-31,29,26,25,19,11,6,77,55,42,30.16,29.81,17,10,17,26.07
2014-2-1,36,30,25,32,26,19,88,84,77,30.02,29.77,13,4,13,0.39
2014-2-2,32,31,16,29,26,4,87,84,59,30.25,29.95,0,0,0,0.01
2014-2-3,26,16,6,11,3,-4,68,58,42,30.41,30.19,0,0,0,0.00
2014-2-4,23,16,8,11,4,-3,71,60,46,30.45,29.96,16,1,16,0.00
2014-2-5,25,22,18,17,12,11,78,68,60,30.36,29.85,20,9,20,0.00
2014-2-6,23,9,-6,12,-5,-20,63,52,37,30.40,30.29,20,9,20,0.00
2014-2-7,12,2,-9,-8,-14,-23,53,45,38,30.41,30.26,22,12,22,0.00
2014-2-8,16,13,11,4,-3,-9,59,48,39,30.29,30.06,22,13,22,0.00
2014-2-9,20,18,6,8,5,-4,70,56,52,30.17,30.01,17,8,17,0.00
2014-2-10,17,7,0,-1,-7,-15,62,53,40,30.38,30.16,17,6,17,0.00
2014-2-11,16,4,-8,-3,-10,-23,59,51,42,30.56,30.32,8,3,8,0.00
2014-2-12,24,10,-4,4,-6,-15,57,49,40,30.33,30.03,10,5,10,0.00
2014-2-13,0,0,0,0,0,0,0,0,100,29.95,29.42,0,0,0,0.00
2014-2-14,0,0,0,0,0,0,0,0,100,29.82,29.42,0,0,0,0.00
2014-2-15,0,0,0,0,0,0,0,0,100,30.06,29.76,0,0,0,0.00
2014-2-16,0,0,0,0,0,0,0,0,100,30.22,29.85,0,0,0,0.00
2014-2-17,0,0,0,0,0,0,0,0,100,30.25,29.61,0,0,0,0.00
2014-2-18,43,7,0,26,4,0,57,10,52,30.05,29.61,16,2,16,0.41
2014-2-19,45,38,32,30,26,22,72,62,46,30.06,29.57,18,6,19,0.00
2014-2-20,42,37,32,40,32,23,92,82,66,29.94,29.32,24,10,24,126.30
2014-2-21,42,34,31,40,22,16,92,62,50,29.79,29.40,42,16,42,0.37
2014-2-22,33,33,33,16,16,16,50,50,50,30.00,29.73,13,13,13,0.37
2014-2-23,33,33,33,16,16,16,50,50,50,30.14,29.94,13,13,13,0.37
2014-2-24,33,12,0,16,16,16,50,18,50,30.26,30.08,13,5,13,0.37
2014-2-25,0,0,0,16,16,16,0,0,100,30.22,30.01,0,0,0,0.37
2014-2-26,0,0,0,16,16,16,0,0,100,30.21,29.60,0,0,0,0.37
2014-2-27,14,6,0,16,7,-8,61,28,38,30.16,29.55,24,7,24,0.07
2014-2-28,26,16,11,3,0,-4,57,49,29,30.30,29.96,23,12,23,0.07
2014-3-1,24,24,24,3,3,3,41,41,41,30.21,29.95,9,9,9,0.00
2014-3-2,24,23,20,8,4,3,57,46,41,30.29,30.17,9,8,9,0.00
2014-3-3,22,22,22,6,6,6,50,50,50,30.52,30.28,7,7,7,0.00
2014-3-4,22,22,22,6,6,6,50,50,50,30.36,30.14,7,7,7,0.00
2014-3-5,23,22,19,12,9,6,70,57,50,30.42,30.14,12,8,12,0.00
2014-3-6,22,8,0,11,11,11,62,21,62,30.38,30.04,8,3,8,0.00
2014-3-7,0,0,0,11,11,11,0,0,100,30.09,29.88,0,0,0,0.00
2014-3-8,34,16,0,30,20,11,84,41,82,30.17,29.86,11,3,11,0.09
2014-3-9,34,34,34,29,29,29,83,83,83,30.25,29.82,7,7,9,0.09
2014-3-10,34,11,0,29,29,29,83,28,83,29.83,29.67,7,2,9,0.09
2014-3-11,0,0,0,29,29,29,0,0,100,29.75,29.58,0,0,0,0.09
2014-3-12,31,12,0,29,24,9,87,41,73,29.98,29.46,26,6,27,0.09
2014-3-13,32,23,6,21,10,-3,71,59,49,30.22,29.86,19,7,19,0.04
2014-3-14,50,43,32,31,27,21,66,54,47,29.86,29.65,27,15,27,0.00
2014-3-15,50,50,50,30,30,30,47,47,47,30.15,29.75,21,21,21,0.00
2014-3-16,50,50,50,30,30,30,47,47,47,30.31,30.08,21,21,21,0.00
2014-3-17,50,50,50,30,30,30,47,47,47,30.08,29.80,21,21,21,0.00
2014-3-18,50,50,50,30,30,30,47,47,47,29.99,29.71,21,21,21,0.00
2014-3-19,50,44,0,42,34,29,89,68,47,29.86,29.59,21,14,21,0.57
2014-3-20,35,35,35,29,29,29,78,78,78,30.09,29.86,11,11,11,0.57
2014-3-21,35,35,34,29,28,26,78,76,74,30.06,29.68,16,14,16,0.01
2014-3-22,34,34,34,26,26,26,74,74,74,30.16,29.70,16,16,16,0.01
2014-3-23,34,34,34,26,26,26,74,74,74,30.36,30.15,16,16,16,0.01
2014-3-24,34,34,34,26,19,0,74,61,25,30.37,30.02,16,15,16,0.11
2014-3-25,34,30,23,14,0,-10,56,30,21,30.15,29.91,27,15,27,0.14
2014-3-26,23,23,23,-3,-3,-3,32,32,32,30.36,30.02,18,18,18,0.14
2014-3-27,45,14,0,34,2,-3,68,20,32,30.02,29.53,18,7,18,0.14
2014-3-28,51,41,35,43,32,23,85,71,61,30.15,29.47,37,14,37,0.21
2014-3-29,35,35,35,24,24,24,63,63,63,30.13,30.04,9,9,9,0.21
2014-3-30,35,35,35,24,24,24,63,63,63,30.25,30.04,9,9,9,0.21
2014-3-31,35,35,35,24,24,24,63,63,63,30.15,29.86,9,9,9,0.21
2014-4-1,53,47,35,44,34,24,78,60,57,30.04,29.70,19,10,19,0.40
2014-4-2,48,48,48,33,33,33,57,57,57,30.17,29.99,10,10,10,0.40
2014-4-3,48,40,37,39,36,33,99,89,57,30.06,29.69,31,15,31,2.21
2014-4-4,46,40,36,45,36,27,99,89,67,29.81,29.47,32,13,32,0.02
2014-4-5,36,36,36,27,27,27,69,69,69,30.17,29.81,10,10,27,0.02
2014-4-6,36,36,36,27,27,27,69,69,69,30.18,29.93,10,10,27,0.02
2014-4-7,44,38,36,41,30,27,96,74,69,29.93,29.52,11,9,27,0.35
2014-4-8,42,40,38,40,33,30,95,77,73,29.86,29.51,11,4,11,0.00
2014-4-9,40,40,40,32,32,32,73,73,73,30.07,29.85,3,3,3,0.00
2014-4-10,62,53,40,38,35,32,73,55,43,29.96,29.77,26,14,26,0.00
2014-4-11,62,54,43,46,34,30,98,54,41,30.12,29.91,21,6,21,0.02
2014-4-12,57,56,55,36,34,30,47,45,41,30.10,29.84,4,4,7,0.02
2014-4-13,57,57,57,36,36,36,47,47,47,29.86,29.67,4,4,4,0.00
2014-4-14,57,41,0,38,33,25,94,66,47,29.89,29.49,26,11,26,0.26
2014-4-15,33,31,27,27,11,3,92,49,30,30.26,29.80,24,16,24,0.07
2014-4-16,33,33,33,3,3,3,30,30,30,30.47,30.14,22,22,22,0.07
2014-4-17,0,0,0,0,0,0,0,0,100,30.32,30.27,0,0,0,0.07
2014-4-18,0,0,0,0,0,0,0,0,100,30.37,30.24,0,0,0,0.07
2014-4-19,0,0,0,0,0,0,0,0,100,30.38,30.27,0,0,0,0.07
2014-4-20,0,0,0,0,0,0,0,0,100,30.29,30.13,0,0,0,0.07
2014-4-21,0,0,0,0,0,0,0,0,100,30.13,29.69,0,0,0,0.07
2014-4-22,44,4,0,29,3,0,60,6,54,30.04,29.77,14,1,14,0.33
2014-4-23,62,47,33,33,24,9,75,48,16,30.23,29.97,12,6,15,0.00
2014-4-24,54,52,48,36,29,25,63,44,37,30.14,29.75,24,16,24,0.01
2014-4-25,54,47,43,47,42,27,98,82,37,29.90,29.60,24,17,24,1.32
2014-4-26,48,48,48,44,44,44,87,87,87,30.03,29.82,24,24,24,1.32
2014-4-27,48,48,48,44,44,44,87,87,87,30.04,29.85,24,24,24,1.32
2014-4-28,49,48,46,44,43,39,88,83,72,29.88,29.67,36,24,36,1.33
2014-4-29,72,61,49,57,46,24,99,67,27,29.78,29.51,37,14,37,1.42
2014-4-30,68,67,61,48,42,36,64,45,33,29.84,29.68,22,14,22,0.18
2014-5-1,66,60,45,47,46,43,97,63,52,29.87,29.68,22,8,22,0.04
2014-5-2,47,45,45,46,44,43,97,95,91,29.91,29.73,15,4,15,0.01
2014-5-3,49,48,46,46,44,41,97,83,81,29.89,29.65,16,9,16,0.01
2014-5-4,49,49,49,43,43,43,81,81,81,30.09,29.86,10,10,10,0.01
2014-5-5,49,49,49,43,43,43,81,81,81,30.10,29.96,10,10,10,0.01
2014-5-6,49,49,49,43,43,43,81,81,81,30.10,29.86,10,10,10,0.01
2014-5-7,49,49,49,43,43,43,81,81,81,30.01,29.84,10,10,10,0.01
2014-5-8,90,37,0,58,25,0,56,18,31,29.98,29.78,21,5,21,0.43
2014-5-9,77,71,64,64,60,55,96,71,56,30.01,29.69,29,11,29,135.90
2014-5-10,77,74,69,59,44,26,56,40,21,30.06,29.91,16,10,16,0.00
2014-5-11,87,75,64,63,40,28,96,34,24,30.09,29.92,23,5,23,0.40
2014-5-12,69,67,62,66,64,60,98,92,90,30.05,29.86,23,5,23,0.06
2014-5-13,77,71,66,70,66,64,98,84,73,30.18,29.89,21,8,21,0.40
2014-5-14,73,64,49,64,58,46,99,81,73,30.20,29.89,28,10,28,0.83
2014-5-15,51,47,45,50,45,42,99,93,88,30.08,29.73,25,11,28,0.20
2014-5-16,45,45,45,42,42,42,88,88,88,30.08,29.96,13,13,17,0.20
2014-5-17,45,45,45,42,42,42,88,88,88,30.17,29.98,13,13,17,0.20
2014-5-18,45,45,45,42,42,42,88,88,88,30.30,30.14,13,13,17,0.20
2014-5-19,45,45,45,42,42,42,88,88,88,30.35,30.08,13,13,17,0.20
2014-5-20,45,45,45,42,42,42,88,88,88,30.14,29.81,13,13,17,0.20
2014-5-21,73,64,45,66,58,42,91,82,78,30.08,29.81,13,8,17,0.73
2014-5-22,73,73,73,65,65,65,78,78,78,30.15,29.96,5,5,8,0.73
2014-5-23,73,71,60,65,62,43,78,75,49,30.25,30.12,8,5,8,0.73
2014-5-24,79,67,51,47,44,42,88,51,30,30.27,30.19,4,2,4,0.01
2014-5-25,79,79,79,42,42,42,30,30,30,30.27,30.09,2,2,2,0.00
2014-5-26,79,79,79,42,42,42,30,30,30,30.17,29.94,2,2,2,0.00
2014-5-27,79,69,66,68,66,42,98,91,30,30.11,29.85,10,6,10,0.35
2014-5-28,84,74,70,68,65,61,94,78,49,30.12,29.91,12,8,12,0.00
2014-5-29,83,83,83,61,61,61,49,49,49,30.18,30.01,8,8,11,0.00
2014-5-30,83,83,83,61,61,61,49,49,49,30.22,30.02,8,8,11,0.00
2014-5-31,83,83,83,61,61,61,49,49,49,30.29,30.08,8,8,11,0.00
2014-6-1,91,83,77,63,59,42,60,47,23,30.20,29.94,20,8,20,0.00
2014-6-2,83,76,69,72,67,62,92,76,58,30.04,29.79,27,11,27,0.43
2014-6-3,83,75,66,69,54,32,95,57,21,29.98,29.85,26,9,26,0.08
2014-6-4,66,62,57,59,55,48,98,78,54,29.99,29.72,20,8,20,1.00
2014-6-5,74,67,52,58,47,41,97,56,33,30.04,29.89,14,8,14,1.00
2014-6-6,74,74,74,41,41,41,33,33,33,30.08,29.97,10,10,10,0.00
2014-6-7,74,74,74,41,41,41,33,33,33,30.11,29.86,10,10,10,0.00
2014-6-8,74,74,74,41,41,41,33,33,33,30.06,29.84,10,10,10,0.00
2014-6-9,74,74,74,41,41,41,33,33,33,30.07,29.87,10,10,10,0.00
2014-6-10,74,74,74,41,41,41,33,33,33,30.00,29.81,10,10,10,0.00
2014-6-11,74,74,74,41,41,41,33,33,33,29.84,29.63,10,10,10,0.00
2014-6-12,74,74,74,41,41,41,33,33,33,29.93,29.78,10,10,10,0.00
2014-6-13,74,74,74,41,41,41,33,33,33,30.13,29.92,10,10,10,0.00
2014-6-14,74,74,74,41,41,41,33,33,33,30.21,30.11,10,10,10,0.00
2014-6-15,74,74,74,41,41,41,33,33,33,30.16,30.02,10,10,10,0.00
2014-6-16,74,74,74,41,41,41,33,33,33,30.16,30.04,10,10,10,0.00
2014-6-17,74,74,74,41,41,41,33,33,33,30.14,29.90,10,10,10,0.00
2014-6-18,74,74,74,41,41,41,33,33,33,30.10,29.96,10,10,10,0.00
2014-6-19,74,74,74,41,41,41,33,33,33,30.18,30.08,10,10,10,0.00
2014-6-20,74,74,74,41,41,41,33,33,33,30.18,29.97,10,10,10,0.00
2014-6-21,74,74,74,41,41,41,33,33,33,30.12,29.96,10,10,10,0.00
2014-6-22,74,74,74,41,41,41,33,33,33,30.04,29.95,10,10,10,0.00
2014-6-23,74,74,74,41,41,41,33,33,33,29.98,29.89,10,10,10,0.00
2014-6-25,74,74,74,41,41,41,33,33,33,30.13,29.94,10,10,10,0.00
2014-6-26,74,74,74,41,41,41,33,33,33,30.17,30.06,10,10,10,0.00
2014-6-27,74,74,74,41,41,41,33,33,33,30.17,30.09,10,10,10,0.00
2014-6-28,74,74,74,41,41,41,33,33,33,30.22,30.09,10,10,10,0.00
2014-6-29,74,74,74,41,41,41,33,33,33,30.12,30.02,10,10,10,0.00
2014-6-30,74,74,74,41,41,41,33,33,33,30.08,29.80,10,10,10,0.00
2014-7-1,74,74,74,41,41,41,33,33,33,29.91,29.78,10,10,10,0.00
2014-7-2,74,74,74,41,41,41,33,33,33,30.07,29.89,10,10,10,0.00
2014-7-3,74,74,74,41,41,41,33,33,33,30.26,30.06,10,10,10,0.00
2014-7-4,74,74,74,41,41,41,33,33,33,30.39,30.26,10,10,10,0.00
2014-7-5,74,74,74,41,41,41,33,33,33,30.39,30.18,10,10,10,0.00
2014-7-6,74,74,74,41,41,41,33,33,33,30.19,29.90,10,10,10,0.00
2014-7-7,74,74,74,41,41,41,33,33,33,29.90,29.78,10,10,10,0.00
2014-7-8,74,74,74,41,41,41,33,33,33,29.91,29.66,10,10,10,0.00
2014-7-9,74,74,74,41,41,41,33,33,33,30.14,29.91,10,10,10,0.00
2014-7-10,74,74,74,41,41,41,33,33,33,30.21,30.14,10,10,10,0.00
2014-7-13,0,0,0,0,0,0,0,0,100,30.05,29.93,0,0,0,0.00
2014-7-14,0,0,0,0,0,0,0,0,100,30.01,29.78,0,0,0,0.00
2014-7-15,0,0,0,0,0,0,0,0,100,30.02,29.81,0,0,0,0.00
2014-7-16,0,0,0,0,0,0,0,0,100,30.12,29.99,0,0,0,0.00
2014-7-17,0,0,0,0,0,0,0,0,100,30.22,30.09,0,0,0,0.00
2014-7-18,0,0,0,0,0,0,0,0,100,30.27,30.12,0,0,0,0.00
2014-7-19,0,0,0,0,0,0,0,0,100,30.21,30.08,0,0,0,0.00
2014-7-20,0,0,0,0,0,0,0,0,100,30.19,30.07,0,0,0,0.00
2014-7-21,0,0,0,0,0,0,0,0,100,30.19,30.07,0,0,0,0.00
2014-7-22,0,0,0,0,0,0,0,0,100,30.20,29.96,0,0,0,0.00
2014-7-23,0,0,0,0,0,0,0,0,100,30.19,29.99,0,0,0,0.00
2014-7-24,0,0,0,0,0,0,0,0,100,30.20,30.05,0,0,0,0.00
2014-7-25,0,0,0,0,0,0,0,0,100,30.16,29.94,0,0,0,0.00
2014-7-26,0,0,0,0,0,0,0,0,100,30.05,29.89,0,0,0,0.00
2014-7-27,0,0,0,0,0,0,0,0,100,29.94,29.72,0,0,0,0.00
2014-7-28,0,0,0,0,0,0,0,0,100,30.11,29.88,0,0,0,0.00
2014-7-29,0,0,0,0,0,0,0,0,100,30.09,29.97,0,0,0,0.00
2014-7-30,0,0,0,0,0,0,0,0,100,30.12,29.96,0,0,0,0.00
2014-7-31,0,0,0,0,0,0,0,0,100,30.14,29.99,0,0,0,0.00
2014-8-1,0,0,0,0,0,0,0,0,100,30.20,30.08,0,0,0,0.00
2014-8-2,0,0,0,0,0,0,0,0,100,30.25,30.14,0,0,0,0.00
2014-8-3,0,0,0,0,0,0,0,0,100,30.27,30.14,0,0,0,0.00
2014-8-4,0,0,0,0,0,0,0,0,100,30.19,30.08,0,0,0,0.00
2014-8-5,0,0,0,0,0,0,0,0,100,30.17,30.02,0,0,0,0.00
2014-8-6,0,0,0,0,0,0,0,0,100,30.17,30.04,0,0,0,0.00
2014-8-7,0,0,0,0,0,0,0,0,100,30.19,30.05,0,0,0,0.00
2014-8-8,0,0,0,0,0,0,0,0,100,30.18,30.04,0,0,0,0.00
2014-8-9,0,0,0,0,0,0,0,0,100,30.21,30.09,0,0,0,0.00
2014-8-10,0,0,0,0,0,0,0,0,100,30.17,30.00,0,0,0,0.00
2014-8-11,0,0,0,0,0,0,0,0,100,30.03,29.81,0,0,0,0.00
2014-8-12,0,0,0,0,0,0,0,0,100,30.00,29.73,0,0,0,0.00
2014-8-13,0,0,0,0,0,0,0,0,100,30.11,29.99,0,0,0,0.00
2014-8-14,0,0,0,0,0,0,0,0,100,30.14,30.03,0,0,0,0.00
2014-8-15,0,0,0,0,0,0,0,0,100,30.17,30.04,0,0,0,0.00
2014-8-16,0,0,0,0,0,0,0,0,100,30.09,29.99,0,0,0,0.00
2014-8-17,0,0,0,0,0,0,0,0,100,30.08,29.97,0,0,0,0.00
2014-8-18,0,0,0,0,0,0,0,0,100,30.01,29.84,0,0,0,0.00
2014-8-19,0,0,0,0,0,0,0,0,100,29.92,29.76,0,0,0,0.00
2014-8-20,0,0,0,0,0,0,0,0,100,30.08,29.86,0,0,0,0.00
2014-8-21,0,0,0,0,0,0,0,0,100,30.11,29.97,0,0,0,0.00
2014-8-22,0,0,0,0,0,0,0,0,100,30.09,29.96,0,0,0,0.00
2014-8-23,0,0,0,0,0,0,0,0,100,30.12,30.00,0,0,0,0.00
2014-8-24,0,0,0,0,0,0,0,0,100,30.16,30.06,0,0,0,0.00
2014-8-25,0,0,0,0,0,0,0,0,100,30.15,30.05,0,0,0,0.00
2014-8-26,0,0,0,0,0,0,0,0,100,30.20,30.07,0,0,0,0.00
2014-8-27,0,0,0,0,0,0,0,0,100,30.21,30.10,0,0,0,0.00
2014-8-28,0,0,0,0,0,0,0,0,100,30.22,30.07,0,0,0,0.00
2014-8-29,0,0,0,0,0,0,0,0,100,30.17,29.97,0,0,0,0.00
2014-8-30,0,0,0,0,0,0,0,0,100,30.06,29.95,0,0,0,0.00
2014-8-31,0,0,0,0,0,0,0,0,100,30.09,29.98,0,0,0,0.00
2014-9-1,0,0,0,0,0,0,0,0,100,30.02,29.81,0,0,0,0.00
2014-9-2,0,0,0,0,0,0,0,0,100,30.05,29.89,0,0,0,0.00
2014-9-3,0,0,0,0,0,0,0,0,100,30.11,29.99,0,0,0,0.00
2014-9-4,0,0,0,0,0,0,0,0,100,30.11,29.90,0,0,0,0.00
2014-9-5,0,0,0,0,0,0,0,0,100,30.11,29.84,0,0,0,0.00
2014-9-6,0,0,0,0,0,0,0,0,100,30.24,30.06,0,0,0,0.00
2014-9-7,0,0,0,0,0,0,0,0,100,30.27,30.20,0,0,0,0.00
2014-9-8,0,0,0,0,0,0,0,0,100,30.23,29.96,0,0,0,0.00
2014-9-9,0,0,0,0,0,0,0,0,100,30.10,29.93,0,0,0,0.00
2014-9-10,0,0,0,0,0,0,0,0,100,29.99,29.55,0,0,0,0.00
2014-9-11,0,0,0,0,0,0,0,0,100,30.21,29.81,0,0,0,0.00
2014-9-12,0,0,0,0,0,0,0,0,100,30.30,30.15,0,0,0,0.00
2014-9-13,0,0,0,0,0,0,0,0,100,30.28,30.14,0,0,0,0.00
2014-9-14,0,0,0,0,0,0,0,0,100,30.27,30.15,0,0,0,0.00
2014-9-15,0,0,0,0,0,0,0,0,100,30.19,30.07,0,0,0,0.00
2014-9-16,0,0,0,0,0,0,0,0,100,30.21,30.03,0,0,0,0.00
2014-9-17,0,0,0,0,0,0,0,0,100,30.11,29.91,0,0,0,0.00
2014-9-18,0,0,0,0,0,0,0,0,100,30.23,30.06,0,0,0,0.00
2014-9-19,0,0,0,0,0,0,0,0,100,30.27,30.09,0,0,0,0.00
2014-9-20,0,0,0,0,0,0,0,0,100,30.09,29.90,0,0,0,0.00
2014-9-21,0,0,0,0,0,0,0,0,100,30.14,29.80,0,0,0,0.00
2014-9-22,0,0,0,0,0,0,0,0,100,30.33,30.13,0,0,0,0.00
2014-9-23,0,0,0,0,0,0,0,0,100,30.40,30.27,0,0,0,0.00
2014-9-24,0,0,0,0,0,0,0,0,100,30.46,30.30,0,0,0,0.00
2014-9-25,0,0,0,0,0,0,0,0,100,30.36,30.24,0,0,0,0.00
2014-9-26,0,0,0,0,0,0,0,0,100,30.35,30.22,0,0,0,0.00
2014-9-27,0,0,0,0,0,0,0,0,100,30.31,30.23,0,0,0,0.00
2014-9-28,0,0,0,0,0,0,0,0,100,30.25,30.11,0,0,0,0.00
2014-9-29,0,0,0,0,0,0,0,0,100,30.12,29.93,0,0,0,0.00
2014-9-30,0,0,0,0,0,0,0,0,100,30.07,30.00,0,0,0,0.00
2014-10-1,0,0,0,0,0,0,0,0,100,30.10,29.91,0,0,0,0.00
2014-10-2,0,0,0,0,0,0,0,0,100,30.02,29.81,0,0,0,0.00
2014-10-3,0,0,0,0,0,0,0,0,100,29.79,29.53,0,0,0,0.00
2014-10-4,0,0,0,0,0,0,0,0,100,29.75,29.62,0,0,0,0.00
2014-10-5,0,0,0,0,0,0,0,0,100,29.65,29.60,0,0,0,0.00
2014-10-6,0,0,0,0,0,0,0,0,100,29.73,29.45,0,0,0,0.00
2014-10-7,0,0,0,0,0,0,0,0,100,29.83,29.65,0,0,0,0.00
2014-10-8,0,0,0,0,0,0,0,0,100,30.08,29.82,0,0,0,0.00
2014-10-9,0,0,0,0,0,0,0,0,100,30.17,30.02,0,0,0,0.00
2014-10-10,0,0,0,0,0,0,0,0,100,30.21,30.02,0,0,0,0.00
2014-10-11,0,0,0,0,0,0,0,0,100,30.17,30.09,0,0,0,0.00
2014-10-12,0,0,0,0,0,0,0,0,100,30.14,29.87,0,0,0,0.00
2014-10-13,0,0,0,0,0,0,0,0,100,29.96,29.73,0,0,0,0.00
2014-10-14,0,0,0,0,0,0,0,0,100,29.75,29.48,0,0,0,0.00
2014-10-15,59,22,0,53,20,0,84,31,81,29.99,29.70,13,2,13,0.00
2014-10-16,66,55,0,56,52,49,93,71,61,30.01,29.88,14,6,14,0.00
2014-10-17,67,57,51,52,49,46,95,77,49,29.94,29.72,18,9,18,0.04
2014-10-18,52,48,44,50,44,36,94,88,71,30.20,29.94,21,8,21,0.21
2014-10-19,58,49,38,41,36,34,96,64,46,30.21,29.98,15,5,15,0.00
2014-10-20,68,58,51,48,42,36,81,59,46,30.13,29.85,24,9,24,0.00
2014-10-21,55,50,46,45,42,37,88,74,59,30.40,30.10,16,7,16,0.25
2014-10-22,56,47,37,38,36,34,92,69,47,30.53,30.37,15,6,15,0.00
2014-10-23,62,43,32,40,37,31,99,84,41,30.43,30.25,9,2,9,0.25
2014-10-24,69,54,45,52,46,39,92,75,50,30.29,30.11,98,3,98,0.05
2014-10-25,72,59,50,55,42,3,93,66,10,30.13,30.03,23,7,23,0.00
2014-10-26,68,53,43,40,31,0,74,49,10,30.17,30.07,16,4,16,0.00
2014-10-27,77,64,48,59,45,32,62,52,41,30.07,29.81,29,10,29,5.75
2014-10-28,70,62,50,59,50,34,92,67,46,30.12,29.85,23,11,23,0.22
2014-10-29,50,44,40,36,35,33,81,71,56,30.27,30.07,12,5,12,0.22
2014-10-30,54,47,43,37,34,29,76,61,42,30.32,30.18,12,3,12,0.00
2014-10-31,46,40,33,40,34,23,91,82,62,30.33,30.06,25,12,25,0.21
2014-11-1,45,35,27,23,17,4,67,50,22,30.54,30.31,17,9,17,0.73
2014-11-2,54,40,36,24,17,5,53,43,17,30.59,30.35,14,6,14,0.73
2014-11-3,65,53,42,37,27,22,49,40,31,30.37,30.17,22,9,22,0.00
2014-11-4,58,52,41,48,41,26,92,72,32,30.22,30.08,21,10,21,0.93
2014-11-5,62,50,37,42,38,35,94,69,43,30.37,30.09,10,6,10,0.94
2014-11-6,48,45,43,47,42,36,98,89,67,30.22,29.86,29,12,29,0.08
2014-11-7,43,43,43,42,42,42,94,94,94,30.35,30.00,19,19,19,0.08
2014-11-8,43,43,43,42,42,42,94,94,94,30.05,29.83,19,19,19,0.08
2014-11-9,43,43,43,42,42,42,94,94,94,30.09,29.92,19,19,19,0.08
2014-11-10,58,50,43,42,40,38,94,74,51,30.06,29.79,20,18,20,0.09
2014-11-11,56,56,56,38,38,38,53,53,53,30.12,29.75,18,18,18,0.09
2014-11-12,56,56,56,38,38,38,53,53,53,30.45,30.11,18,18,18,0.09
2014-11-13,56,43,26,38,27,13,62,56,50,30.45,30.32,18,14,22,0.21
2014-11-14,31,27,26,19,15,15,63,62,59,30.50,30.34,11,8,12,0.21
2014-11-15,29,28,28,17,16,16,62,61,61,30.55,30.31,5,5,7,0.00
2014-11-16,95,36,27,22,20,16,73,69,59,30.32,29.99,8,6,8,1.33
2014-11-17,30,30,30,22,22,22,72,72,72,30.07,29.91,8,8,8,1.33
2014-11-18,30,24,16,22,10,-2,72,57,42,30.30,30.01,29,10,29,1.33
2014-11-19,26,20,19,12,2,-1,60,45,42,30.22,29.91,26,10,26,0.00
2014-11-20,32,25,18,11,0,-13,63,39,18,30.31,30.05,28,11,28,1.33
2014-11-21,33,24,0,11,-1,-11,53,30,21,30.65,30.30,14,6,17,1.33
2014-11-22,34,33,26,16,16,10,51,49,45,30.35,30.03,15,11,15,1.33
2014-11-23,34,34,34,16,16,16,49,49,49,30.04,29.24,11,11,11,1.33
2014-11-24,34,34,34,16,16,16,49,49,49,29.90,29.20,11,11,11,1.33
2014-11-25,34,34,34,16,16,16,49,49,49,30.34,29.89,11,11,11,1.33
2014-11-26,34,34,34,16,16,16,49,49,49,30.36,30.22,11,11,11,1.33
2014-11-27,34,34,34,16,16,16,49,49,49,30.50,30.22,11,11,11,1.33
2014-11-28,34,34,34,16,16,16,49,49,49,30.51,30.07,11,11,11,1.33
2014-11-29,51,42,30,37,29,16,69,61,49,30.10,29.82,18,11,18,1.49
2014-11-30,51,51,51,37,37,37,59,59,59,30.26,29.81,11,11,11,1.49
2014-12-1,51,51,51,37,37,37,59,59,59,30.73,30.26,11,11,11,1.49
2014-12-2,51,51,51,37,37,37,59,59,59,30.63,30.16,11,11,11,1.49
2014-12-3,51,46,26,37,32,12,59,58,46,30.45,29.62,11,10,11,1.49
2014-12-4,32,29,25,19,17,13,65,60,59,30.61,30.36,10,4,10,2.85
2014-12-5,32,32,32,19,19,19,59,59,59,30.39,30.25,5,5,5,2.85
2014-12-6,32,32,32,19,19,19,59,59,59,30.72,30.27,5,5,5,2.85
2014-12-7,32,32,32,19,19,19,59,59,59,30.79,30.43,5,5,5,2.85
2014-12-8,32,32,32,19,19,19,59,59,59,30.43,30.10,5,5,5,2.85
2014-12-9,32,32,32,19,19,19,59,59,59,30.43,29.63,5,5,5,2.85
2014-12-10,32,32,32,19,19,19,59,59,59,30.52,30.29,5,5,5,2.85
2014-12-11,32,32,32,19,19,19,59,59,59,30.40,30.25,5,5,5,2.85
2014-12-12,32,32,32,19,19,19,59,59,59,30.50,30.30,5,5,5,2.85
2014-12-13,32,32,32,19,19,19,59,59,59,30.37,30.18,5,5,5,2.85
2014-12-14,32,32,32,19,19,19,59,59,59,30.27,30.16,5,5,5,2.85
2014-12-15,32,32,32,19,19,19,59,59,59,30.19,29.83,5,5,5,2.85
2014-12-16,32,10,0,19,19,19,59,20,59,30.14,29.75,5,2,5,2.85
2014-12-17,26,6,0,19,18,17,70,16,69,30.40,30.14,13,3,13,2.85
2014-12-18,26,26,0,17,17,17,69,68,69,30.40,30.32,13,13,13,2.85
2014-12-19,0,0,0,0,0,0,0,0,100,30.44,29.99,0,0,0,2.85